Weather History for Sanford, ME

Change the Weather History Date:

Saturday, March 9, 2013

  Actual Average Record
Temperature  
Mean Temperature 34 °F -  
Max Temperature 46 °F 36 °F 59 °F (2002)
Min Temperature 21 °F 18 °F -9 °F (2007)
Degree Days  
Heating Degree Days 32    
Moisture  
Dew Point 19 °F    
Average Humidity 57    
Maximum Humidity 100    
Minimum Humidity 27    
Precipitation  
Precipitation 0.00 in - - ()
Sea Level Pressure  
Sea Level Pressure 30.25 in    
Wind  
Wind Speed 10 mph (NE)    
Max Wind Speed 18 mph    
Max Gust Speed 26 mph    
Visibility 10 miles    
Events      
Averages and records for this station are not official NWS values.
T = Trace of Precipitation, MM = Missing Value Source: NWS Daily Summary

Daily Weather History Graph

Daily Weather History Graph

Search for Another Location

Airport:

Trip Planner

Search our weather history database for the weather conditions in past years. The results will help you decide how hot, cold, wet, or windy it might be!

Date:

Astronomy

Mar. 09, 2013 Rise Set
Actual Time 6:05 AM EST 5:42 PM EST
Civil Twilight 5:36 AM EST 6:10 PM EST
Nautical Twilight 5:03 AM EST 6:43 PM EST
Astronomical Twilight 4:30 AM EST 7:17 PM EST
Moon 4:30 AM EST (3/9) 3:38 PM EST (3/9)
Length of Visible Light 12h 33m
Length of Day
11h 36m
Waning Crescent, 5% of the Moon is Illuminated
Mar 9
Waning Crescent
Mar 11
New
Mar 19
First Quarter
Mar 27
Full
Apr 3
Last Quarter

Hourly Weather History & Observations

Time (EST) Temp. Windchill Dew Point Humidity Pressure Visibility Wind Dir Wind Speed Gust Speed Precip Events Conditions
12:15 AM 35.6 °F 25.5 °F 19.4 °F 52% 30.17 in 10.0 mi North 17.3 mph 26.5 mph N/A   Clear
12:35 AM 35.6 °F 26.6 °F 19.4 °F 52% 30.18 in 10.0 mi North 13.8 mph 20.7 mph N/A   Clear
12:55 AM 35.6 °F 26.6 °F 14.0 °F 41% 30.17 in 10.0 mi North 13.8 mph 18.4 mph N/A   Clear
1:15 AM 35.6 °F 26.6 °F 15.8 °F 44% 30.18 in 10.0 mi North 13.8 mph 19.6 mph N/A   Clear
1:35 AM 33.8 °F 24.8 °F 21.2 °F 60% 30.18 in 10.0 mi North 12.7 mph - N/A   Clear
1:55 AM 33.8 °F 23.5 °F 17.6 °F 52% 30.17 in 10.0 mi North 16.1 mph - N/A   Clear
2:15 AM 33.8 °F 23.9 °F 12.2 °F 41% 30.16 in 10.0 mi North 15.0 mph - N/A   Clear
2:35 AM 33.8 °F 23.5 °F 15.8 °F 48% 30.16 in 10.0 mi North 16.1 mph 25.3 mph N/A   Clear
2:55 AM 33.8 °F 23.9 °F 21.2 °F 60% 30.17 in 10.0 mi North 15.0 mph 20.7 mph N/A   Clear
3:15 AM 33.8 °F 24.3 °F 15.8 °F 48% 30.17 in 10.0 mi NNE 13.8 mph - N/A   Clear
3:35 AM 32.0 °F 21.6 °F 12.2 °F 44% 30.17 in 10.0 mi NNE 15.0 mph 21.9 mph N/A   Clear
3:55 AM 32.0 °F 22.1 °F 21.2 °F 64% 30.17 in 10.0 mi NNE 13.8 mph - N/A   Clear
4:15 AM 30.2 °F 19.8 °F 19.4 °F 64% 30.18 in 10.0 mi North 13.8 mph - N/A   Clear
4:35 AM 30.2 °F 18.9 °F 8.6 °F 40% 30.18 in 10.0 mi NNE 16.1 mph - N/A   Clear
4:55 AM 30.2 °F 21.3 °F 19.4 °F 64% 30.19 in 10.0 mi North 10.4 mph - N/A   Clear
5:35 AM 30.2 °F 19.8 °F 8.6 °F 40% 30.20 in 10.0 mi NNE 13.8 mph - N/A   Clear
5:55 AM 28.4 °F 19.7 °F 12.2 °F 51% 30.21 in 10.0 mi North 9.2 mph - N/A   Clear
6:15 AM 28.4 °F 21.2 °F 21.2 °F 74% 30.21 in 10.0 mi North 6.9 mph - N/A   Clear
6:35 AM 28.4 °F 22.2 °F 10.4 °F 47% 30.22 in 10.0 mi North 5.8 mph - N/A   Clear
6:55 AM 26.6 °F 19.1 °F 10.4 °F 51% 30.22 in 10.0 mi NNE 6.9 mph - N/A   Clear
7:15 AM 28.4 °F 19.1 °F 17.6 °F 64% 30.23 in 10.0 mi NNE 10.4 mph - N/A   Clear
7:35 AM 30.2 °F 22.6 °F 17.6 °F 60% 30.24 in 10.0 mi NNE 8.1 mph - N/A   Clear
7:55 AM 32.0 °F 21.6 °F 15.8 °F 51% 30.24 in 10.0 mi NNE 15.0 mph - N/A   Clear
8:15 AM 33.8 °F 24.3 °F 19.4 °F 56% 30.24 in 10.0 mi NNE 13.8 mph - N/A   Clear
8:35 AM 35.6 °F 27.5 °F 14.0 °F 41% 30.24 in 10.0 mi NNE 11.5 mph - N/A   Clear
8:55 AM 35.6 °F 26.6 °F 12.2 °F 38% 30.24 in 10.0 mi NE 13.8 mph - N/A   Clear
9:15 AM 37.4 °F 27.5 °F 21.2 °F 52% 30.24 in 10.0 mi NNE 18.4 mph - N/A   Clear
9:35 AM 37.4 °F 28.5 °F 19.4 °F 48% 30.24 in 10.0 mi NNE 15.0 mph 21.9 mph N/A   Clear
9:55 AM 37.4 °F 29.8 °F 15.8 °F 41% 30.24 in 10.0 mi NE 11.5 mph - N/A   Clear
10:15 AM 39.2 °F 32.5 °F 14.0 °F 36% 30.25 in 10.0 mi NE 10.4 mph - N/A   Clear
10:55 AM 39.2 °F 35.0 °F 19.4 °F 45% 30.24 in 10.0 mi NE 5.8 mph - N/A   Clear
11:15 AM 41.0 °F 37.1 °F 17.6 °F 39% 30.24 in 10.0 mi NNE 5.8 mph - N/A   Clear
11:35 AM 42.8 °F 38.6 °F 19.4 °F 39% 30.24 in 10.0 mi NNE 6.9 mph - N/A   Clear
11:55 AM 42.8 °F 39.3 °F 17.6 °F 36% 30.24 in 10.0 mi ENE 5.8 mph - N/A   Clear
12:15 PM 42.8 °F - 19.4 °F 39% 30.24 in 10.0 mi Calm Calm - N/A   Clear
12:35 PM 44.6 °F 42.2 °F 17.6 °F 34% 30.24 in 10.0 mi ENE 4.6 mph - N/A   Clear
12:55 PM 44.6 °F 43.1 °F 19.4 °F 37% 30.24 in 10.0 mi North 3.5 mph - N/A   Clear
1:15 PM 44.6 °F 40.2 °F 15.8 °F 31% 30.24 in 10.0 mi ENE 8.1 mph - N/A   Clear
1:35 PM 46.4 °F 45.2 °F 14.0 °F 27% 30.23 in 10.0 mi NE 3.5 mph - N/A   Clear
1:55 PM 46.4 °F 42.9 °F 19.4 °F 34% 30.23 in 10.0 mi NNE 6.9 mph - N/A   Clear
2:15 PM 46.4 °F 43.5 °F 17.6 °F 32% 30.23 in 10.0 mi ESE 5.8 mph - N/A   Clear
2:35 PM 44.6 °F 41.4 °F 24.8 °F 46% 30.23 in 10.0 mi SSE 5.8 mph - N/A   Clear
2:55 PM 44.6 °F 41.4 °F 24.8 °F 46% 30.24 in 10.0 mi SSE 5.8 mph - N/A   Clear
3:15 PM 42.8 °F 40.1 °F 24.8 °F 49% 30.24 in 10.0 mi SSE 4.6 mph - N/A   Clear
3:35 PM 42.8 °F 39.3 °F 26.6 °F 53% 30.25 in 10.0 mi SE 5.8 mph - N/A   Clear
3:55 PM 42.8 °F 39.3 °F 26.6 °F 53% 30.25 in 10.0 mi SSE 5.8 mph - N/A   Clear
4:15 PM 41.0 °F 36.4 °F 26.6 °F 57% 30.26 in 10.0 mi SSE 6.9 mph - N/A   Clear
4:35 PM 39.2 °F 35.0 °F 26.6 °F 61% 30.27 in 10.0 mi SE 5.8 mph - N/A   Clear
4:55 PM 39.2 °F 35.0 °F 24.8 °F 56% 30.27 in 10.0 mi SSE 5.8 mph - N/A   Clear
5:15 PM 37.4 °F 34.9 °F 26.6 °F 65% 30.28 in 10.0 mi SE 3.5 mph - N/A   Clear
5:35 PM 37.4 °F 33.8 °F 24.8 °F 60% 30.29 in 10.0 mi SE 4.6 mph - N/A   Clear
5:55 PM 35.6 °F 32.8 °F 26.6 °F 70% 30.30 in 10.0 mi SSE 3.5 mph - N/A   Clear
6:15 PM 33.8 °F 30.8 °F 28.4 °F 81% 30.31 in 10.0 mi SE 3.5 mph - N/A   Clear
6:35 PM 33.8 °F - 24.8 °F 70% 30.31 in 10.0 mi Calm Calm - N/A   Clear
6:55 PM 30.2 °F - 21.2 °F 69% 30.32 in 10.0 mi Calm Calm - N/A   Clear
7:15 PM 28.4 °F 24.6 °F 23.0 °F 80% 30.33 in 10.0 mi WSW 3.5 mph - N/A   Clear
7:35 PM 28.4 °F - 24.8 °F 86% 30.34 in 10.0 mi Calm Calm - N/A   Clear
7:55 PM 28.4 °F - 24.8 °F 86% 30.33 in 10.0 mi Calm Calm - N/A   Clear
8:15 PM 26.6 °F - 21.2 °F 80% 30.33 in 10.0 mi Calm Calm - N/A   Clear
8:35 PM 26.6 °F - 24.8 °F 93% 30.33 in 10.0 mi Calm Calm - N/A   Clear
8:55 PM 24.8 °F - 23.0 °F 93% 30.33 in 10.0 mi Calm Calm - N/A   Clear
9:15 PM 24.8 °F 20.5 °F 17.6 °F 74% 30.34 in 10.0 mi West 3.5 mph - N/A   Clear
9:35 PM 24.8 °F - 17.6 °F 74% 30.35 in 10.0 mi Calm Calm - N/A   Clear
9:55 PM 24.8 °F - 19.4 °F 80% 30.35 in 10.0 mi Calm Calm - N/A   Clear
10:15 PM 24.8 °F - 24.8 °F 100% 30.35 in 10.0 mi Calm Calm - N/A   Clear
10:35 PM 24.8 °F - 15.8 °F 69% 30.34 in 10.0 mi Calm Calm - N/A   Clear
10:55 PM 21.2 °F 16.4 °F 15.8 °F 80% 30.35 in 10.0 mi West 3.5 mph - N/A   Clear
11:15 PM 21.2 °F - 19.4 °F 93% 30.35 in 10.0 mi Calm Calm - N/A   Clear
11:35 PM 21.2 °F - 19.4 °F 93% 30.35 in 10.0 mi Calm Calm - N/A   Clear
11:55 PM 21.2 °F - 12.2 °F 68% 30.36 in 10.0 mi Calm Calm - N/A   Clear